sensor_id;sensor_type;location;lat;lon;timestamp;P1;durP1;ratioP1;P2;durP2;ratioP2
11817;SDS011;5966;52.402;5.322;2023-05-23T00:00:48;9.13;;;5.50;;
11817;SDS011;5966;52.402;5.322;2023-05-23T00:03:17;8.80;;;5.67;;
11817;SDS011;5966;52.402;5.322;2023-05-23T00:05:48;8.57;;;5.47;;
11817;SDS011;5966;52.402;5.322;2023-05-23T00:08:17;9.10;;;4.80;;
11817;SDS011;5966;52.402;5.322;2023-05-23T00:10:48;8.17;;;4.83;;
11817;SDS011;5966;52.402;5.322;2023-05-23T00:13:25;7.77;;;4.67;;
11817;SDS011;5966;52.402;5.322;2023-05-23T00:15:53;5.80;;;3.97;;
11817;SDS011;5966;52.402;5.322;2023-05-23T00:18:21;6.20;;;4.43;;
11817;SDS011;5966;52.402;5.322;2023-05-23T00:20:50;8.97;;;4.53;;
11817;SDS011;5966;52.402;5.322;2023-05-23T00:23:19;8.47;;;5.47;;
11817;SDS011;5966;52.402;5.322;2023-05-23T00:25:49;7.97;;;5.03;;
11817;SDS011;5966;52.402;5.322;2023-05-23T00:28:19;6.87;;;4.60;;
11817;SDS011;5966;52.402;5.322;2023-05-23T00:30:47;6.63;;;4.40;;
11817;SDS011;5966;52.402;5.322;2023-05-23T00:33:15;4.37;;;3.90;;
11817;SDS011;5966;52.402;5.322;2023-05-23T00:35:47;4.57;;;3.80;;
11817;SDS011;5966;52.402;5.322;2023-05-23T00:38:15;5.33;;;4.30;;
11817;SDS011;5966;52.402;5.322;2023-05-23T00:40:43;7.57;;;4.53;;
11817;SDS011;5966;52.402;5.322;2023-05-23T00:43:12;6.30;;;4.67;;
11817;SDS011;5966;52.402;5.322;2023-05-23T00:45:41;7.70;;;5.10;;
11817;SDS011;5966;52.402;5.322;2023-05-23T00:48:09;8.00;;;5.23;;
11817;SDS011;5966;52.402;5.322;2023-05-23T00:50:37;7.27;;;4.10;;
11817;SDS011;5966;52.402;5.322;2023-05-23T00:53:06;7.53;;;4.83;;
11817;SDS011;5966;52.402;5.322;2023-05-23T00:55:34;7.70;;;4.70;;
11817;SDS011;5966;52.402;5.322;2023-05-23T00:58:02;7.77;;;5.00;;
11817;SDS011;5966;52.402;5.322;2023-05-23T01:00:32;5.93;;;4.73;;
11817;SDS011;5966;52.402;5.322;2023-05-23T01:03:01;7.50;;;5.03;;
11817;SDS011;5966;52.402;5.322;2023-05-23T01:05:30;7.83;;;5.33;;
11817;SDS011;5966;52.402;5.322;2023-05-23T01:07:58;13.07;;;5.70;;
11817;SDS011;5966;52.402;5.322;2023-05-23T01:10:28;8.30;;;5.27;;
11817;SDS011;5966;52.402;5.322;2023-05-23T01:13:01;11.23;;;6.33;;
11817;SDS011;5966;52.402;5.322;2023-05-23T01:15:39;13.27;;;6.67;;
11817;SDS011;5966;52.402;5.322;2023-05-23T01:18:12;12.23;;;6.10;;
11817;SDS011;5966;52.402;5.322;2023-05-23T01:20:46;14.97;;;6.03;;
11817;SDS011;5966;52.402;5.322;2023-05-23T01:23:26;10.27;;;5.33;;
11817;SDS011;5966;52.402;5.322;2023-05-23T01:26:21;11.47;;;5.87;;
11817;SDS011;5966;52.402;5.322;2023-05-23T01:29:03;12.53;;;6.60;;
11817;SDS011;5966;52.402;5.322;2023-05-23T01:31:36;15.10;;;6.43;;
11817;SDS011;5966;52.402;5.322;2023-05-23T01:34:06;11.67;;;6.20;;
11817;SDS011;5966;52.402;5.322;2023-05-23T01:36:37;12.13;;;6.30;;
11817;SDS011;5966;52.402;5.322;2023-05-23T01:39:08;12.27;;;5.50;;
11817;SDS011;5966;52.402;5.322;2023-05-23T01:41:36;8.97;;;5.20;;
11817;SDS011;5966;52.402;5.322;2023-05-23T01:44:06;8.73;;;4.17;;
11817;SDS011;5966;52.402;5.322;2023-05-23T01:46:34;7.53;;;4.27;;
11817;SDS011;5966;52.402;5.322;2023-05-23T01:49:04;8.87;;;5.03;;
11817;SDS011;5966;52.402;5.322;2023-05-23T01:51:34;10.43;;;5.40;;
11817;SDS011;5966;52.402;5.322;2023-05-23T01:54:02;10.67;;;4.97;;
11817;SDS011;5966;52.402;5.322;2023-05-23T01:56:31;11.37;;;5.10;;
11817;SDS011;5966;52.402;5.322;2023-05-23T01:59:00;10.93;;;5.30;;
11817;SDS011;5966;52.402;5.322;2023-05-23T02:01:30;11.77;;;5.13;;
11817;SDS011;5966;52.402;5.322;2023-05-23T02:03:58;12.80;;;5.93;;
11817;SDS011;5966;52.402;5.322;2023-05-23T02:06:26;9.47;;;5.03;;
11817;SDS011;5966;52.402;5.322;2023-05-23T02:08:54;11.70;;;5.60;;
11817;SDS011;5966;52.402;5.322;2023-05-23T02:11:22;11.27;;;5.67;;
11817;SDS011;5966;52.402;5.322;2023-05-23T02:13:50;12.83;;;5.93;;
11817;SDS011;5966;52.402;5.322;2023-05-23T02:16:18;10.40;;;5.00;;
11817;SDS011;5966;52.402;5.322;2023-05-23T02:18:48;10.53;;;5.50;;
11817;SDS011;5966;52.402;5.322;2023-05-23T02:21:18;10.37;;;5.13;;
11817;SDS011;5966;52.402;5.322;2023-05-23T02:23:46;9.73;;;5.03;;
11817;SDS011;5966;52.402;5.322;2023-05-23T02:26:14;10.80;;;5.27;;
11817;SDS011;5966;52.402;5.322;2023-05-23T02:28:42;12.13;;;5.03;;
11817;SDS011;5966;52.402;5.322;2023-05-23T02:31:10;9.67;;;5.03;;
11817;SDS011;5966;52.402;5.322;2023-05-23T02:33:38;17.17;;;5.13;;
11817;SDS011;5966;52.402;5.322;2023-05-23T02:36:07;12.53;;;5.73;;
11817;SDS011;5966;52.402;5.322;2023-05-23T02:38:35;10.80;;;5.50;;
11817;SDS011;5966;52.402;5.322;2023-05-23T02:41:04;11.40;;;5.90;;
11817;SDS011;5966;52.402;5.322;2023-05-23T02:43:33;15.13;;;5.43;;
11817;SDS011;5966;52.402;5.322;2023-05-23T02:46:01;11.43;;;5.03;;
11817;SDS011;5966;52.402;5.322;2023-05-23T02:48:29;12.83;;;5.40;;
11817;SDS011;5966;52.402;5.322;2023-05-23T02:50:57;14.67;;;6.00;;
11817;SDS011;5966;52.402;5.322;2023-05-23T02:53:43;14.13;;;6.20;;
11817;SDS011;5966;52.402;5.322;2023-05-23T02:56:11;14.60;;;6.17;;
11817;SDS011;5966;52.402;5.322;2023-05-23T02:58:41;12.37;;;5.30;;
11817;SDS011;5966;52.402;5.322;2023-05-23T03:01:09;17.73;;;6.90;;
11817;SDS011;5966;52.402;5.322;2023-05-23T03:03:37;17.67;;;6.10;;
11817;SDS011;5966;52.402;5.322;2023-05-23T03:06:05;14.70;;;6.13;;
11817;SDS011;5966;52.402;5.322;2023-05-23T03:08:35;12.47;;;5.40;;
11817;SDS011;5966;52.402;5.322;2023-05-23T03:11:05;12.43;;;5.60;;
11817;SDS011;5966;52.402;5.322;2023-05-23T03:13:33;15.23;;;5.13;;
11817;SDS011;5966;52.402;5.322;2023-05-23T03:16:01;14.13;;;5.67;;
11817;SDS011;5966;52.402;5.322;2023-05-23T03:18:29;16.87;;;6.00;;
11817;SDS011;5966;52.402;5.322;2023-05-23T03:20:56;13.33;;;5.00;;
11817;SDS011;5966;52.402;5.322;2023-05-23T03:23:24;13.13;;;5.63;;
11817;SDS011;5966;52.402;5.322;2023-05-23T03:25:52;11.20;;;4.60;;
11817;SDS011;5966;52.402;5.322;2023-05-23T03:28:22;12.17;;;4.70;;
11817;SDS011;5966;52.402;5.322;2023-05-23T03:30:50;12.97;;;4.87;;
11817;SDS011;5966;52.402;5.322;2023-05-23T03:33:18;10.23;;;5.33;;
11817;SDS011;5966;52.402;5.322;2023-05-23T03:35:47;15.90;;;5.63;;
11817;SDS011;5966;52.402;5.322;2023-05-23T03:38:15;14.83;;;4.70;;
11817;SDS011;5966;52.402;5.322;2023-05-23T03:40:43;9.67;;;4.27;;
11817;SDS011;5966;52.402;5.322;2023-05-23T03:43:11;9.03;;;3.77;;
11817;SDS011;5966;52.402;5.322;2023-05-23T03:45:40;9.00;;;3.70;;
11817;SDS011;5966;52.402;5.322;2023-05-23T03:48:08;10.53;;;3.97;;
11817;SDS011;5966;52.402;5.322;2023-05-23T03:50:38;8.97;;;3.43;;
11817;SDS011;5966;52.402;5.322;2023-05-23T03:53:06;6.80;;;3.23;;
11817;SDS011;5966;52.402;5.322;2023-05-23T03:55:34;10.80;;;3.90;;
11817;SDS011;5966;52.402;5.322;2023-05-23T03:58:02;11.43;;;3.47;;
11817;SDS011;5966;52.402;5.322;2023-05-23T04:00:30;5.07;;;2.80;;
11817;SDS011;5966;52.402;5.322;2023-05-23T04:02:59;8.83;;;3.27;;
11817;SDS011;5966;52.402;5.322;2023-05-23T04:05:27;8.87;;;3.57;;
11817;SDS011;5966;52.402;5.322;2023-05-23T04:07:55;5.73;;;2.63;;
11817;SDS011;5966;52.402;5.322;2023-05-23T04:10:26;7.23;;;2.97;;
11817;SDS011;5966;52.402;5.322;2023-05-23T04:12:54;7.33;;;2.93;;
11817;SDS011;5966;52.402;5.322;2023-05-23T04:15:22;6.73;;;3.17;;
11817;SDS011;5966;52.402;5.322;2023-05-23T04:17:50;10.50;;;3.70;;
11817;SDS011;5966;52.402;5.322;2023-05-23T04:20:20;10.67;;;3.50;;
11817;SDS011;5966;52.402;5.322;2023-05-23T04:22:48;9.00;;;3.50;;
11817;SDS011;5966;52.402;5.322;2023-05-23T04:25:16;8.17;;;3.07;;
11817;SDS011;5966;52.402;5.322;2023-05-23T04:27:45;8.23;;;3.27;;
11817;SDS011;5966;52.402;5.322;2023-05-23T04:30:13;11.10;;;4.37;;
11817;SDS011;5966;52.402;5.322;2023-05-23T04:32:43;9.77;;;3.47;;
11817;SDS011;5966;52.402;5.322;2023-05-23T04:35:12;8.47;;;3.70;;
11817;SDS011;5966;52.402;5.322;2023-05-23T04:37:41;11.03;;;3.43;;
11817;SDS011;5966;52.402;5.322;2023-05-23T04:40:11;11.63;;;3.60;;
11817;SDS011;5966;52.402;5.322;2023-05-23T04:42:39;9.60;;;3.50;;
11817;SDS011;5966;52.402;5.322;2023-05-23T04:45:09;8.13;;;3.40;;
11817;SDS011;5966;52.402;5.322;2023-05-23T04:47:37;11.00;;;4.17;;
11817;SDS011;5966;52.402;5.322;2023-05-23T04:50:07;9.03;;;3.40;;
11817;SDS011;5966;52.402;5.322;2023-05-23T04:52:35;13.63;;;3.90;;
11817;SDS011;5966;52.402;5.322;2023-05-23T04:55:05;6.30;;;3.40;;
11817;SDS011;5966;52.402;5.322;2023-05-23T04:57:35;10.60;;;3.67;;
11817;SDS011;5966;52.402;5.322;2023-05-23T05:00:04;11.70;;;3.67;;
11817;SDS011;5966;52.402;5.322;2023-05-23T05:02:35;10.67;;;3.60;;
11817;SDS011;5966;52.402;5.322;2023-05-23T05:05:04;8.37;;;4.10;;
11817;SDS011;5966;52.402;5.322;2023-05-23T05:07:33;9.73;;;4.30;;
11817;SDS011;5966;52.402;5.322;2023-05-23T05:10:02;10.33;;;4.80;;
11817;SDS011;5966;52.402;5.322;2023-05-23T05:12:32;7.47;;;3.80;;
11817;SDS011;5966;52.402;5.322;2023-05-23T05:15:01;10.30;;;4.53;;
11817;SDS011;5966;52.402;5.322;2023-05-23T05:17:30;9.53;;;3.87;;
11817;SDS011;5966;52.402;5.322;2023-05-23T05:20:02;11.83;;;4.50;;
11817;SDS011;5966;52.402;5.322;2023-05-23T05:22:33;10.50;;;4.57;;
11817;SDS011;5966;52.402;5.322;2023-05-23T05:25:02;11.73;;;4.07;;
11817;SDS011;5966;52.402;5.322;2023-05-23T05:27:33;11.57;;;4.93;;
11817;SDS011;5966;52.402;5.322;2023-05-23T05:30:04;7.20;;;4.03;;
11817;SDS011;5966;52.402;5.322;2023-05-23T05:32:34;7.87;;;4.53;;
11817;SDS011;5966;52.402;5.322;2023-05-23T05:35:02;9.30;;;4.43;;
11817;SDS011;5966;52.402;5.322;2023-05-23T05:37:30;8.83;;;4.30;;
11817;SDS011;5966;52.402;5.322;2023-05-23T05:39:59;12.27;;;4.50;;
11817;SDS011;5966;52.402;5.322;2023-05-23T05:42:31;11.90;;;5.00;;
11817;SDS011;5966;52.402;5.322;2023-05-23T05:45:01;12.70;;;4.83;;
11817;SDS011;5966;52.402;5.322;2023-05-23T05:47:29;11.33;;;4.73;;
11817;SDS011;5966;52.402;5.322;2023-05-23T05:49:57;9.43;;;4.53;;
11817;SDS011;5966;52.402;5.322;2023-05-23T05:52:25;8.93;;;4.00;;
11817;SDS011;5966;52.402;5.322;2023-05-23T05:54:53;10.57;;;4.23;;
11817;SDS011;5966;52.402;5.322;2023-05-23T05:57:22;8.93;;;4.63;;
11817;SDS011;5966;52.402;5.322;2023-05-23T05:59:52;10.30;;;4.30;;
11817;SDS011;5966;52.402;5.322;2023-05-23T06:02:20;10.07;;;4.30;;
11817;SDS011;5966;52.402;5.322;2023-05-23T06:04:48;10.60;;;4.13;;
11817;SDS011;5966;52.402;5.322;2023-05-23T06:07:16;11.33;;;4.83;;
11817;SDS011;5966;52.402;5.322;2023-05-23T06:09:44;7.23;;;3.10;;
11817;SDS011;5966;52.402;5.322;2023-05-23T06:12:12;8.93;;;3.20;;
11817;SDS011;5966;52.402;5.322;2023-05-23T06:14:40;9.37;;;3.20;;
11817;SDS011;5966;52.402;5.322;2023-05-23T06:17:09;5.07;;;3.00;;
11817;SDS011;5966;52.402;5.322;2023-05-23T06:19:39;10.40;;;3.30;;
11817;SDS011;5966;52.402;5.322;2023-05-23T06:22:07;7.13;;;3.40;;
11817;SDS011;5966;52.402;5.322;2023-05-23T06:24:35;8.23;;;2.97;;
11817;SDS011;5966;52.402;5.322;2023-05-23T06:27:03;7.10;;;3.43;;
11817;SDS011;5966;52.402;5.322;2023-05-23T06:29:35;6.87;;;2.43;;
11817;SDS011;5966;52.402;5.322;2023-05-23T06:32:03;6.50;;;2.43;;
11817;SDS011;5966;52.402;5.322;2023-05-23T06:34:33;10.17;;;2.83;;
11817;SDS011;5966;52.402;5.322;2023-05-23T06:37:01;7.70;;;2.30;;
11817;SDS011;5966;52.402;5.322;2023-05-23T06:39:29;11.53;;;3.37;;
11817;SDS011;5966;52.402;5.322;2023-05-23T06:41:56;13.03;;;4.10;;
11817;SDS011;5966;52.402;5.322;2023-05-23T06:44:24;8.40;;;2.63;;
11817;SDS011;5966;52.402;5.322;2023-05-23T06:46:52;9.70;;;2.80;;
11817;SDS011;5966;52.402;5.322;2023-05-23T06:49:22;6.97;;;2.70;;
11817;SDS011;5966;52.402;5.322;2023-05-23T06:51:52;7.40;;;2.67;;
11817;SDS011;5966;52.402;5.322;2023-05-23T06:54:20;12.23;;;2.57;;
11817;SDS011;5966;52.402;5.322;2023-05-23T06:56:48;13.00;;;3.37;;
11817;SDS011;5966;52.402;5.322;2023-05-23T06:59:16;11.87;;;3.07;;
11817;SDS011;5966;52.402;5.322;2023-05-23T07:01:44;8.80;;;3.13;;
11817;SDS011;5966;52.402;5.322;2023-05-23T07:04:12;12.87;;;3.20;;
11817;SDS011;5966;52.402;5.322;2023-05-23T07:06:40;10.90;;;3.13;;
11817;SDS011;5966;52.402;5.322;2023-05-23T07:09:10;10.30;;;2.53;;
11817;SDS011;5966;52.402;5.322;2023-05-23T07:11:39;12.03;;;3.40;;
11817;SDS011;5966;52.402;5.322;2023-05-23T07:14:07;9.10;;;2.90;;
11817;SDS011;5966;52.402;5.322;2023-05-23T07:16:37;12.33;;;3.10;;
11817;SDS011;5966;52.402;5.322;2023-05-23T07:19:05;9.97;;;3.37;;
11817;SDS011;5966;52.402;5.322;2023-05-23T07:21:33;9.90;;;2.77;;
11817;SDS011;5966;52.402;5.322;2023-05-23T07:24:01;10.07;;;2.60;;
11817;SDS011;5966;52.402;5.322;2023-05-23T07:26:30;8.87;;;3.00;;
11817;SDS011;5966;52.402;5.322;2023-05-23T07:29:01;10.53;;;3.03;;
11817;SDS011;5966;52.402;5.322;2023-05-23T07:31:30;9.20;;;2.80;;
11817;SDS011;5966;52.402;5.322;2023-05-23T07:34:02;13.17;;;2.90;;
11817;SDS011;5966;52.402;5.322;2023-05-23T07:36:30;10.80;;;3.50;;
11817;SDS011;5966;52.402;5.322;2023-05-23T07:39:02;14.40;;;3.13;;
11817;SDS011;5966;52.402;5.322;2023-05-23T07:41:31;11.57;;;3.30;;
11817;SDS011;5966;52.402;5.322;2023-05-23T07:44:01;12.57;;;2.97;;
11817;SDS011;5966;52.402;5.322;2023-05-23T07:46:29;10.67;;;2.47;;
11817;SDS011;5966;52.402;5.322;2023-05-23T07:48:57;12.20;;;3.03;;
11817;SDS011;5966;52.402;5.322;2023-05-23T07:51:27;12.60;;;3.57;;
11817;SDS011;5966;52.402;5.322;2023-05-23T07:53:56;7.97;;;2.47;;
11817;SDS011;5966;52.402;5.322;2023-05-23T07:56:24;10.70;;;2.93;;
11817;SDS011;5966;52.402;5.322;2023-05-23T07:58:54;11.77;;;2.90;;
11817;SDS011;5966;52.402;5.322;2023-05-23T08:01:22;9.67;;;2.37;;
11817;SDS011;5966;52.402;5.322;2023-05-23T08:03:50;12.20;;;2.73;;
11817;SDS011;5966;52.402;5.322;2023-05-23T08:06:18;10.37;;;2.90;;
11817;SDS011;5966;52.402;5.322;2023-05-23T08:08:46;8.67;;;2.47;;
11817;SDS011;5966;52.402;5.322;2023-05-23T08:11:14;11.53;;;3.07;;
11817;SDS011;5966;52.402;5.322;2023-05-23T08:13:43;11.70;;;2.97;;
11817;SDS011;5966;52.402;5.322;2023-05-23T08:16:14;7.83;;;3.13;;
11817;SDS011;5966;52.402;5.322;2023-05-23T08:18:43;8.33;;;2.83;;
11817;SDS011;5966;52.402;5.322;2023-05-23T08:21:11;9.10;;;3.07;;
11817;SDS011;5966;52.402;5.322;2023-05-23T08:23:39;12.53;;;3.17;;
11817;SDS011;5966;52.402;5.322;2023-05-23T08:26:07;11.20;;;2.77;;
11817;SDS011;5966;52.402;5.322;2023-05-23T08:28:35;7.80;;;3.13;;
11817;SDS011;5966;52.402;5.322;2023-05-23T08:31:03;13.37;;;3.67;;
11817;SDS011;5966;52.402;5.322;2023-05-23T08:33:33;7.80;;;3.00;;
11817;SDS011;5966;52.402;5.322;2023-05-23T08:36:01;7.03;;;2.93;;
11817;SDS011;5966;52.402;5.322;2023-05-23T08:38:30;5.50;;;2.70;;
11817;SDS011;5966;52.402;5.322;2023-05-23T08:40:59;11.67;;;3.00;;
11817;SDS011;5966;52.402;5.322;2023-05-23T08:43:29;12.07;;;2.80;;
11817;SDS011;5966;52.402;5.322;2023-05-23T08:45:57;10.77;;;2.80;;
11817;SDS011;5966;52.402;5.322;2023-05-23T08:48:27;10.37;;;2.57;;
11817;SDS011;5966;52.402;5.322;2023-05-23T08:50:57;9.53;;;2.87;;
11817;SDS011;5966;52.402;5.322;2023-05-23T08:53:25;6.63;;;2.70;;
11817;SDS011;5966;52.402;5.322;2023-05-23T08:55:58;8.93;;;2.80;;
11817;SDS011;5966;52.402;5.322;2023-05-23T08:58:29;8.97;;;2.90;;
11817;SDS011;5966;52.402;5.322;2023-05-23T09:01:04;10.97;;;2.80;;
11817;SDS011;5966;52.402;5.322;2023-05-23T09:03:34;11.53;;;2.77;;
11817;SDS011;5966;52.402;5.322;2023-05-23T09:06:04;8.73;;;3.23;;
11817;SDS011;5966;52.402;5.322;2023-05-23T09:08:33;11.03;;;3.07;;
11817;SDS011;5966;52.402;5.322;2023-05-23T09:11:03;10.27;;;2.77;;
11817;SDS011;5966;52.402;5.322;2023-05-23T09:13:32;4.70;;;2.43;;
11817;SDS011;5966;52.402;5.322;2023-05-23T09:16:06;10.47;;;3.07;;
11817;SDS011;5966;52.402;5.322;2023-05-23T09:18:36;10.03;;;2.47;;
11817;SDS011;5966;52.402;5.322;2023-05-23T09:21:09;8.97;;;2.30;;
11817;SDS011;5966;52.402;5.322;2023-05-23T09:23:39;11.80;;;2.73;;
11817;SDS011;5966;52.402;5.322;2023-05-23T09:26:09;12.53;;;2.97;;
11817;SDS011;5966;52.402;5.322;2023-05-23T09:28:41;12.73;;;3.27;;
11817;SDS011;5966;52.402;5.322;2023-05-23T09:31:10;10.30;;;3.00;;
11817;SDS011;5966;52.402;5.322;2023-05-23T09:33:38;7.93;;;2.73;;
11817;SDS011;5966;52.402;5.322;2023-05-23T09:36:11;7.00;;;2.50;;
11817;SDS011;5966;52.402;5.322;2023-05-23T09:38:42;9.40;;;2.63;;
11817;SDS011;5966;52.402;5.322;2023-05-23T09:41:11;6.77;;;2.17;;
11817;SDS011;5966;52.402;5.322;2023-05-23T09:43:48;10.10;;;2.53;;
11817;SDS011;5966;52.402;5.322;2023-05-23T09:46:17;9.37;;;2.87;;
11817;SDS011;5966;52.402;5.322;2023-05-23T09:48:46;7.93;;;2.50;;
11817;SDS011;5966;52.402;5.322;2023-05-23T09:51:20;8.33;;;2.67;;
11817;SDS011;5966;52.402;5.322;2023-05-23T09:53:50;6.97;;;2.57;;
11817;SDS011;5966;52.402;5.322;2023-05-23T09:56:18;9.57;;;2.90;;
11817;SDS011;5966;52.402;5.322;2023-05-23T09:58:49;12.00;;;3.27;;
11817;SDS011;5966;52.402;5.322;2023-05-23T10:01:20;7.53;;;2.67;;
11817;SDS011;5966;52.402;5.322;2023-05-23T10:03:51;11.67;;;3.20;;
11817;SDS011;5966;52.402;5.322;2023-05-23T10:06:27;12.33;;;2.97;;
11817;SDS011;5966;52.402;5.322;2023-05-23T10:09:05;14.73;;;2.90;;
11817;SDS011;5966;52.402;5.322;2023-05-23T10:11:55;11.47;;;2.73;;
11817;SDS011;5966;52.402;5.322;2023-05-23T10:15:12;11.73;;;3.33;;
11817;SDS011;5966;52.402;5.322;2023-05-23T10:17:56;5.90;;;2.27;;
11817;SDS011;5966;52.402;5.322;2023-05-23T10:20:29;8.70;;;2.30;;
11817;SDS011;5966;52.402;5.322;2023-05-23T10:23:03;8.90;;;2.37;;
11817;SDS011;5966;52.402;5.322;2023-05-23T10:25:32;10.77;;;2.63;;
11817;SDS011;5966;52.402;5.322;2023-05-23T10:28:02;11.00;;;2.60;;
11817;SDS011;5966;52.402;5.322;2023-05-23T10:30:32;8.83;;;2.80;;
11817;SDS011;5966;52.402;5.322;2023-05-23T10:33:01;10.17;;;2.40;;
11817;SDS011;5966;52.402;5.322;2023-05-23T10:35:36;9.40;;;2.77;;
11817;SDS011;5966;52.402;5.322;2023-05-23T10:38:16;6.60;;;2.10;;
11817;SDS011;5966;52.402;5.322;2023-05-23T10:41:07;7.70;;;2.50;;
11817;SDS011;5966;52.402;5.322;2023-05-23T10:43:42;7.53;;;2.23;;
11817;SDS011;5966;52.402;5.322;2023-05-23T10:46:18;8.43;;;2.53;;
11817;SDS011;5966;52.402;5.322;2023-05-23T10:48:52;7.83;;;2.67;;
11817;SDS011;5966;52.402;5.322;2023-05-23T10:51:30;7.43;;;2.87;;
11817;SDS011;5966;52.402;5.322;2023-05-23T10:54:19;8.97;;;2.40;;
11817;SDS011;5966;52.402;5.322;2023-05-23T10:57:01;5.63;;;2.13;;
11817;SDS011;5966;52.402;5.322;2023-05-23T10:59:32;6.50;;;2.43;;
11817;SDS011;5966;52.402;5.322;2023-05-23T11:02:02;9.47;;;2.63;;
11817;SDS011;5966;52.402;5.322;2023-05-23T11:04:33;10.13;;;2.87;;
11817;SDS011;5966;52.402;5.322;2023-05-23T11:07:02;8.00;;;2.53;;
11817;SDS011;5966;52.402;5.322;2023-05-23T11:09:33;10.40;;;2.90;;
11817;SDS011;5966;52.402;5.322;2023-05-23T11:12:03;8.67;;;2.13;;
11817;SDS011;5966;52.402;5.322;2023-05-23T11:14:52;7.67;;;2.30;;
11817;SDS011;5966;52.402;5.322;2023-05-23T11:17:31;9.73;;;2.33;;
11817;SDS011;5966;52.402;5.322;2023-05-23T11:20:03;7.73;;;2.30;;
11817;SDS011;5966;52.402;5.322;2023-05-23T11:22:33;6.93;;;1.90;;
11817;SDS011;5966;52.402;5.322;2023-05-23T11:25:07;5.90;;;1.90;;
11817;SDS011;5966;52.402;5.322;2023-05-23T11:27:40;8.63;;;2.67;;
11817;SDS011;5966;52.402;5.322;2023-05-23T11:30:09;12.63;;;2.73;;
11817;SDS011;5966;52.402;5.322;2023-05-23T11:32:40;9.13;;;2.60;;
11817;SDS011;5966;52.402;5.322;2023-05-23T11:35:09;8.77;;;2.67;;
11817;SDS011;5966;52.402;5.322;2023-05-23T11:37:39;6.33;;;2.50;;
11817;SDS011;5966;52.402;5.322;2023-05-23T11:40:30;6.87;;;2.40;;
11817;SDS011;5966;52.402;5.322;2023-05-23T11:43:04;9.03;;;2.30;;
11817;SDS011;5966;52.402;5.322;2023-05-23T11:45:33;9.10;;;2.47;;
11817;SDS011;5966;52.402;5.322;2023-05-23T11:48:06;8.80;;;2.40;;
11817;SDS011;5966;52.402;5.322;2023-05-23T11:50:42;7.63;;;2.23;;
11817;SDS011;5966;52.402;5.322;2023-05-23T11:53:11;8.60;;;2.03;;
11817;SDS011;5966;52.402;5.322;2023-05-23T11:55:56;12.60;;;2.60;;
11817;SDS011;5966;52.402;5.322;2023-05-23T11:58:37;8.27;;;2.33;;
11817;SDS011;5966;52.402;5.322;2023-05-23T12:01:10;10.80;;;2.37;;
11817;SDS011;5966;52.402;5.322;2023-05-23T12:03:44;10.97;;;2.40;;
11817;SDS011;5966;52.402;5.322;2023-05-23T12:06:23;7.27;;;2.37;;
11817;SDS011;5966;52.402;5.322;2023-05-23T12:08:58;11.27;;;2.50;;
11817;SDS011;5966;52.402;5.322;2023-05-23T12:11:38;8.00;;;2.73;;
11817;SDS011;5966;52.402;5.322;2023-05-23T12:14:12;9.90;;;2.80;;
11817;SDS011;5966;52.402;5.322;2023-05-23T12:16:46;11.67;;;2.40;;
11817;SDS011;5966;52.402;5.322;2023-05-23T12:19:20;10.53;;;2.60;;
11817;SDS011;5966;52.402;5.322;2023-05-23T12:21:50;7.00;;;2.43;;
11817;SDS011;5966;52.402;5.322;2023-05-23T12:24:21;4.00;;;1.83;;
11817;SDS011;5966;52.402;5.322;2023-05-23T12:26:54;6.97;;;2.47;;
11817;SDS011;5966;52.402;5.322;2023-05-23T12:29:27;12.40;;;2.97;;
11817;SDS011;5966;52.402;5.322;2023-05-23T12:32:00;10.93;;;2.90;;
11817;SDS011;5966;52.402;5.322;2023-05-23T12:34:33;11.20;;;2.60;;
11817;SDS011;5966;52.402;5.322;2023-05-23T12:37:04;8.10;;;2.27;;
11817;SDS011;5966;52.402;5.322;2023-05-23T12:39:45;12.73;;;2.90;;
11817;SDS011;5966;52.402;5.322;2023-05-23T12:42:14;9.63;;;2.90;;
11817;SDS011;5966;52.402;5.322;2023-05-23T12:44:42;6.53;;;2.20;;
11817;SDS011;5966;52.402;5.322;2023-05-23T12:47:11;6.97;;;2.40;;
11817;SDS011;5966;52.402;5.322;2023-05-23T12:49:40;6.60;;;2.20;;
11817;SDS011;5966;52.402;5.322;2023-05-23T12:52:10;7.00;;;2.00;;
11817;SDS011;5966;52.402;5.322;2023-05-23T12:54:39;7.67;;;2.33;;
11817;SDS011;5966;52.402;5.322;2023-05-23T12:57:08;7.87;;;2.20;;
11817;SDS011;5966;52.402;5.322;2023-05-23T12:59:39;5.03;;;1.70;;
11817;SDS011;5966;52.402;5.322;2023-05-23T13:02:14;5.67;;;1.93;;
11817;SDS011;5966;52.402;5.322;2023-05-23T13:04:44;6.90;;;2.10;;
11817;SDS011;5966;52.402;5.322;2023-05-23T13:07:12;7.13;;;2.00;;
11817;SDS011;5966;52.402;5.322;2023-05-23T13:09:42;10.10;;;2.30;;
11817;SDS011;5966;52.402;5.322;2023-05-23T13:12:11;5.80;;;2.00;;
11817;SDS011;5966;52.402;5.322;2023-05-23T13:14:49;10.23;;;2.60;;
11817;SDS011;5966;52.402;5.322;2023-05-23T13:17:27;6.97;;;1.87;;
11817;SDS011;5966;52.402;5.322;2023-05-23T13:20:06;7.77;;;2.33;;
11817;SDS011;5966;52.402;5.322;2023-05-23T13:22:35;9.77;;;2.13;;
11817;SDS011;5966;52.402;5.322;2023-05-23T13:25:05;10.20;;;2.57;;
11817;SDS011;5966;52.402;5.322;2023-05-23T13:30:45;10.50;;;2.80;;
11817;SDS011;5966;52.402;5.322;2023-05-23T13:33:20;8.70;;;2.30;;
11817;SDS011;5966;52.402;5.322;2023-05-23T13:35:54;9.70;;;1.80;;
11817;SDS011;5966;52.402;5.322;2023-05-23T13:38:22;5.43;;;2.00;;
11817;SDS011;5966;52.402;5.322;2023-05-23T13:40:53;5.40;;;2.40;;
11817;SDS011;5966;52.402;5.322;2023-05-23T13:43:21;4.83;;;1.90;;
11817;SDS011;5966;52.402;5.322;2023-05-23T13:45:54;8.93;;;2.30;;
11817;SDS011;5966;52.402;5.322;2023-05-23T13:48:25;9.90;;;2.70;;
11817;SDS011;5966;52.402;5.322;2023-05-23T13:50:56;7.53;;;2.13;;
11817;SDS011;5966;52.402;5.322;2023-05-23T13:53:26;12.20;;;2.67;;
11817;SDS011;5966;52.402;5.322;2023-05-23T13:55:54;8.03;;;2.40;;
11817;SDS011;5966;52.402;5.322;2023-05-23T13:58:24;9.63;;;2.70;;
11817;SDS011;5966;52.402;5.322;2023-05-23T14:00:58;5.57;;;1.83;;
11817;SDS011;5966;52.402;5.322;2023-05-23T14:03:27;8.20;;;2.63;;
11817;SDS011;5966;52.402;5.322;2023-05-23T14:05:57;6.20;;;2.20;;
11817;SDS011;5966;52.402;5.322;2023-05-23T14:08:33;9.33;;;1.93;;
11817;SDS011;5966;52.402;5.322;2023-05-23T14:11:03;10.03;;;1.93;;
11817;SDS011;5966;52.402;5.322;2023-05-23T14:13:35;5.53;;;1.73;;
11817;SDS011;5966;52.402;5.322;2023-05-23T14:16:10;6.57;;;1.87;;
11817;SDS011;5966;52.402;5.322;2023-05-23T14:18:38;8.53;;;2.23;;
11817;SDS011;5966;52.402;5.322;2023-05-23T14:21:07;6.87;;;2.23;;
11817;SDS011;5966;52.402;5.322;2023-05-23T14:23:39;7.80;;;2.13;;
11817;SDS011;5966;52.402;5.322;2023-05-23T14:26:12;9.20;;;2.37;;
11817;SDS011;5966;52.402;5.322;2023-05-23T14:28:42;14.60;;;2.83;;
11817;SDS011;5966;52.402;5.322;2023-05-23T14:31:15;4.80;;;1.77;;
11817;SDS011;5966;52.402;5.322;2023-05-23T14:33:44;5.73;;;1.70;;
11817;SDS011;5966;52.402;5.322;2023-05-23T14:36:12;7.80;;;1.53;;
11817;SDS011;5966;52.402;5.322;2023-05-23T14:38:40;5.97;;;1.80;;
11817;SDS011;5966;52.402;5.322;2023-05-23T14:41:18;5.27;;;1.57;;
11817;SDS011;5966;52.402;5.322;2023-05-23T14:43:48;7.90;;;2.33;;
11817;SDS011;5966;52.402;5.322;2023-05-23T14:46:27;7.03;;;2.13;;
11817;SDS011;5966;52.402;5.322;2023-05-23T14:48:56;8.40;;;2.30;;
11817;SDS011;5966;52.402;5.322;2023-05-23T14:51:24;6.83;;;2.33;;
11817;SDS011;5966;52.402;5.322;2023-05-23T14:54:11;7.83;;;2.40;;
11817;SDS011;5966;52.402;5.322;2023-05-23T14:56:41;7.67;;;2.30;;
11817;SDS011;5966;52.402;5.322;2023-05-23T14:59:12;4.90;;;1.97;;
11817;SDS011;5966;52.402;5.322;2023-05-23T15:02:07;9.60;;;2.63;;
11817;SDS011;5966;52.402;5.322;2023-05-23T15:04:37;6.33;;;2.47;;
11817;SDS011;5966;52.402;5.322;2023-05-23T15:07:07;8.07;;;2.00;;
11817;SDS011;5966;52.402;5.322;2023-05-23T15:09:35;8.60;;;2.07;;
11817;SDS011;5966;52.402;5.322;2023-05-23T15:12:03;5.70;;;1.93;;
11817;SDS011;5966;52.402;5.322;2023-05-23T15:14:35;6.63;;;2.00;;
11817;SDS011;5966;52.402;5.322;2023-05-23T15:17:04;7.90;;;2.27;;
11817;SDS011;5966;52.402;5.322;2023-05-23T15:19:42;5.83;;;1.90;;